createdAt,value
2022-12-22T00:00:38.711Z,97952.69
2022-12-22T00:03:31.267Z,97946.50
2022-12-22T00:06:17.357Z,97944.00
2022-12-22T00:09:05.798Z,97949.38
2022-12-22T00:11:52.183Z,97959.25
2022-12-22T00:14:38.253Z,97965.66
2022-12-22T00:17:31.549Z,97963.78
2022-12-22T00:20:18.810Z,97972.88
2022-12-22T00:23:05.573Z,97974.72
2022-12-22T00:25:51.727Z,97970.19
2022-12-22T00:28:38.272Z,97974.72
2022-12-22T00:31:24.241Z,97967.50
2022-12-22T00:34:11.996Z,97976.56
2022-12-22T00:36:58.155Z,97976.56
2022-12-22T00:39:44.673Z,97966.84
2022-12-22T00:42:30.835Z,97963.13
2022-12-22T00:45:16.954Z,97958.78
2022-12-22T00:48:02.786Z,97974.06
2022-12-22T00:50:52.836Z,97968.50
2022-12-22T00:53:38.638Z,97968.69
2022-12-22T00:56:26.251Z,97956.31
2022-12-22T00:59:13.407Z,97975.91
2022-12-22T01:01:59.964Z,97975.91
2022-12-22T01:04:46.179Z,97976.91
2022-12-22T01:07:34.835Z,97978.59
2022-12-22T01:10:20.892Z,97985.63
2022-12-22T01:13:07.225Z,97983.16
2022-12-22T01:15:53.084Z,97982.13
2022-12-22T01:18:39.223Z,97971.56
2022-12-22T01:21:25.328Z,97981.47
2022-12-22T01:24:12.633Z,97976.91
2022-12-22T01:26:58.816Z,97974.22
2022-12-22T01:29:45.207Z,97968.03
2022-12-22T01:32:31.468Z,97968.03
2022-12-22T01:35:17.820Z,97963.50
2022-12-22T01:38:03.607Z,97960.00
2022-12-22T01:40:51.338Z,97954.63
2022-12-22T01:43:39.617Z,97942.03
2022-12-22T01:46:42.958Z,97947.59
2022-12-22T01:49:30.965Z,97956.47
2022-12-22T01:52:17.106Z,97958.34
2022-12-22T01:55:03.237Z,97968.03
2022-12-22T01:57:50.648Z,97957.31
2022-12-22T02:00:37.261Z,97946.78
2022-12-22T02:03:33.656Z,97944.91
2022-12-22T02:06:33.819Z,97936.03
2022-12-22T02:09:40.076Z,97943.06
2022-12-22T02:12:30.595Z,97941.41
2022-12-22T02:15:22.441Z,97944.91
2022-12-22T02:18:14.739Z,97942.22
2022-12-22T02:21:01.874Z,97954.63
2022-12-22T02:24:11.712Z,97938.72
2022-12-22T02:27:01.307Z,97947.59
2022-12-22T02:29:49.544Z,97931.66
2022-12-22T02:32:35.953Z,97920.94
2022-12-22T02:35:29.171Z,97911.88
2022-12-22T02:38:21.158Z,97912.03
2022-12-22T02:41:12.587Z,97912.03
2022-12-22T02:44:13.032Z,97939.72
2022-12-22T02:47:02.141Z,97937.03
2022-12-22T02:49:51.432Z,97945.91
2022-12-22T02:52:46.035Z,97949.63
2022-12-22T02:55:33.976Z,97951.28
2022-12-22T02:58:20.065Z,97942.41
2022-12-22T03:01:07.783Z,97937.84
2022-12-22T03:03:54.008Z,97940.53
2022-12-22T03:06:40.662Z,97925.47
2022-12-22T03:09:26.498Z,97935.16
2022-12-22T03:12:12.687Z,97923.81
2022-12-22T03:14:58.671Z,97931.84
2022-12-22T03:17:45.795Z,97920.09
2022-12-22T03:20:31.878Z,97921.13
2022-12-22T03:23:23.670Z,97926.50
2022-12-22T03:25:53.413Z,97923.59
2022-12-22T03:28:22.270Z,97913.06
2022-12-22T03:30:58.647Z,97906.84
2022-12-22T03:33:29.316Z,97918.44
2022-12-22T03:35:57.984Z,97909.53
2022-12-22T03:38:26.615Z,97915.75
2022-12-22T03:40:55.385Z,97897.97
2022-12-22T03:43:41.663Z,97895.28
2022-12-22T03:46:33.529Z,97888.06
2022-12-22T03:49:11.426Z,97882.69
2022-12-22T03:51:42.706Z,97884.56
2022-12-22T03:54:12.037Z,97888.06
2022-12-22T03:56:40.795Z,97894.28
2022-12-22T03:59:09.509Z,97893.44
2022-12-22T04:01:42.471Z,97894.28
2022-12-22T04:04:13.220Z,97894.28
2022-12-22T04:06:41.908Z,97904.16
2022-12-22T04:09:10.807Z,97906.84
2022-12-22T04:11:57.046Z,97909.53
2022-12-22T04:14:33.090Z,97906.84
2022-12-22T04:17:03.000Z,97898.78
2022-12-22T04:19:33.133Z,97893.44
2022-12-22T04:22:01.887Z,97899.81
2022-12-22T04:24:30.545Z,97885.56
2022-12-22T04:26:59.286Z,97887.44
2022-12-22T04:29:28.008Z,97896.31
2022-12-22T04:31:56.813Z,97888.25
2022-12-22T04:34:25.496Z,97893.44
2022-12-22T04:36:58.901Z,97888.06
2022-12-22T04:39:31.230Z,97885.56
2022-12-22T04:41:59.879Z,97887.44
2022-12-22T04:44:28.425Z,97883.06
2022-12-22T04:46:57.233Z,97891.13
2022-12-22T04:49:25.826Z,97883.88
2022-12-22T04:51:55.827Z,97883.06
2022-12-22T04:54:24.728Z,97883.06
2022-12-22T04:56:53.968Z,97876.69
2022-12-22T04:59:22.597Z,97876.88
2022-12-22T05:01:51.369Z,97869.66
2022-12-22T05:04:23.714Z,97858.91
2022-12-22T05:06:52.871Z,97861.59
2022-12-22T05:09:22.989Z,97863.28
2022-12-22T05:11:51.636Z,97867.78
2022-12-22T05:14:20.324Z,97858.91
2022-12-22T05:16:49.236Z,97854.38
2022-12-22T05:19:18.455Z,97867.78
2022-12-22T05:21:47.302Z,97856.22
2022-12-22T05:24:16.291Z,97856.22
2022-12-22T05:26:46.356Z,97857.91
2022-12-22T05:29:15.101Z,97849.19
2022-12-22T05:31:47.333Z,97834.75
2022-12-22T05:34:16.622Z,97832.06
2022-12-22T05:36:45.305Z,97827.75
2022-12-22T05:39:13.881Z,97834.75
2022-12-22T05:41:42.675Z,97833.94
2022-12-22T05:44:12.645Z,97829.38
2022-12-22T05:46:41.290Z,97815.97
2022-12-22T05:49:13.186Z,97821.34
2022-12-22T05:51:41.683Z,97824.84
2022-12-22T05:54:11.350Z,97832.91
2022-12-22T05:56:39.908Z,97836.44
2022-12-22T05:59:08.531Z,97838.25
2022-12-22T06:01:38.612Z,97842.81
2022-12-22T06:04:07.477Z,97843.63
2022-12-22T06:06:36.190Z,97845.50
2022-12-22T06:09:05.227Z,97840.13
2022-12-22T06:11:33.854Z,97841.97
2022-12-22T06:14:02.574Z,97835.59
2022-12-22T06:16:31.349Z,97839.03
2022-12-22T06:19:01.375Z,97835.53
2022-12-22T06:21:30.046Z,97837.56
2022-12-22T06:23:59.680Z,97838.75
2022-12-22T06:26:28.385Z,97832.75
2022-12-22T06:28:56.914Z,97834.94
2022-12-22T06:31:25.746Z,97823.75
2022-12-22T06:33:54.383Z,97835.97
2022-12-22T06:36:24.338Z,97836.25
2022-12-22T06:38:53.085Z,97831.81
2022-12-22T06:41:41.680Z,97836.97
2022-12-22T06:44:09.359Z,97829.69
2022-12-22T06:46:38.091Z,97833.84
2022-12-22T06:49:06.980Z,97825.78
2022-12-22T06:51:36.939Z,97823.84
2022-12-22T06:54:05.992Z,97823.19
2022-12-22T06:56:34.567Z,97827.91
2022-12-22T06:59:03.717Z,97824.41
2022-12-22T07:01:32.373Z,97813.88
2022-12-22T07:04:01.279Z,97809.50
2022-12-22T07:06:30.179Z,97813.13
2022-12-22T07:09:00.138Z,97808.41
2022-12-22T07:11:28.924Z,97810.50
2022-12-22T07:13:57.629Z,97807.22
2022-12-22T07:16:26.490Z,97807.22
2022-12-22T07:18:55.103Z,97800.16
2022-12-22T07:21:23.774Z,97802.47
2022-12-22T07:23:52.421Z,97796.91
2022-12-22T07:26:22.377Z,97783.31
2022-12-22T07:28:51.046Z,97788.50
2022-12-22T07:31:20.028Z,97774.25
2022-12-22T07:33:48.771Z,97769.72
2022-12-22T07:36:19.218Z,97784.31
2022-12-22T07:38:49.163Z,97777.75
2022-12-22T07:41:36.253Z,97773.03
2022-12-22T07:44:06.863Z,97778.22
2022-12-22T07:46:37.440Z,97778.88
2022-12-22T07:49:24.096Z,97783.03
2022-12-22T07:51:52.900Z,97784.69
2022-12-22T07:54:21.490Z,97785.53
2022-12-22T07:56:50.040Z,97790.81
2022-12-22T07:59:20.537Z,97790.69
2022-12-22T08:01:49.421Z,97786.81
2022-12-22T08:04:18.161Z,97779.59
2022-12-22T08:06:46.886Z,97782.84
2022-12-22T08:09:17.100Z,97769.44
2022-12-22T08:11:45.659Z,97784.88
2022-12-22T08:14:14.441Z,97782.38
2022-12-22T08:16:44.508Z,97786.53
2022-12-22T08:19:13.181Z,97789.88
2022-12-22T08:21:45.389Z,97804.94
2022-12-22T08:24:18.939Z,97793.75
2022-12-22T08:26:48.430Z,97796.81
2022-12-22T08:29:18.951Z,97791.28
2022-12-22T08:31:48.982Z,97801.34
2022-12-22T08:34:17.766Z,97786.34
2022-12-22T08:36:49.930Z,97793.56
2022-12-22T08:39:18.675Z,97787.34
2022-12-22T08:41:53.753Z,97788.53
2022-12-22T08:44:24.073Z,97786.72
2022-12-22T08:46:55.136Z,97780.97
2022-12-22T08:49:24.004Z,97778.78
2022-12-22T08:51:52.760Z,97768.88
2022-12-22T08:54:21.557Z,97764.06
2022-12-22T08:56:50.656Z,97753.31
2022-12-22T08:59:19.282Z,97754.97
2022-12-22T09:01:50.843Z,97752.47
2022-12-22T09:04:22.571Z,97754.03
2022-12-22T09:06:53.327Z,97761.09
2022-12-22T09:09:23.118Z,97752.00
2022-12-22T09:11:53.116Z,97755.34
2022-12-22T09:14:21.978Z,97756.16
2022-12-22T09:16:51.092Z,97742.59
2022-12-22T09:19:21.277Z,97740.91
2022-12-22T09:21:50.037Z,97735.19
2022-12-22T09:24:18.982Z,97724.81
2022-12-22T09:26:47.612Z,97705.31
2022-12-22T09:29:17.052Z,97702.16
2022-12-22T09:31:45.888Z,97699.09
2022-12-22T09:34:17.994Z,97691.03
2022-12-22T09:36:49.030Z,97676.81
2022-12-22T09:39:19.997Z,97680.97
2022-12-22T09:41:53.315Z,97682.63
2022-12-22T09:44:26.065Z,97684.66
2022-12-22T09:46:55.140Z,97676.59
2022-12-22T09:49:23.856Z,97675.59
2022-12-22T09:51:55.682Z,97677.91
2022-12-22T09:54:24.590Z,97674.00
2022-12-22T09:56:53.199Z,97661.19
2022-12-22T09:59:22.656Z,97662.78
2022-12-22T10:02:17.403Z,97657.44
2022-12-22T10:05:12.113Z,97648.25
2022-12-22T10:07:43.159Z,97637.31
2022-12-22T10:10:25.144Z,97639.81
2022-12-22T10:12:54.606Z,97621.78
2022-12-22T10:15:23.373Z,97632.19
2022-12-22T10:17:52.228Z,97633.81
2022-12-22T10:20:26.516Z,97629.25
2022-12-22T10:22:58.840Z,97631.69
2022-12-22T10:28:24.704Z,97623.44
2022-12-22T10:31:14.701Z,97623.44
2022-12-22T10:33:47.233Z,97621.94
2022-12-22T10:36:17.089Z,97622.19
2022-12-22T10:39:06.538Z,97619.25
2022-12-22T10:41:37.792Z,97621.66
2022-12-22T10:44:09.006Z,97615.91
2022-12-22T10:46:41.631Z,97613.00
2022-12-22T10:49:13.801Z,97611.44
2022-12-22T10:51:43.916Z,97605.22
2022-12-22T10:54:29.203Z,97598.63
2022-12-22T10:57:08.011Z,97595.91
2022-12-22T10:59:37.450Z,97597.75
2022-12-22T11:02:29.903Z,97591.75
2022-12-22T11:05:07.015Z,97603.50
2022-12-22T11:07:37.062Z,97601.66
2022-12-22T11:10:21.507Z,97601.84
2022-12-22T11:13:19.575Z,97589.06
2022-12-22T11:15:51.328Z,97592.41
2022-12-22T11:18:37.835Z,97587.84
2022-12-22T11:21:09.691Z,97584.34
2022-12-22T11:23:40.374Z,97580.81
2022-12-22T11:26:16.411Z,97579.16
2022-12-22T11:29:12.598Z,97580.19
2022-12-22T11:31:58.878Z,97572.31
2022-12-22T11:34:46.324Z,97571.09
2022-12-22T11:37:27.430Z,97572.97
2022-12-22T11:40:01.313Z,97567.97
2022-12-22T11:42:45.595Z,97567.31
2022-12-22T11:45:30.041Z,97567.59
2022-12-22T11:48:02.650Z,97565.91
2022-12-22T11:51:01.754Z,97562.59
2022-12-22T11:54:08.856Z,97566.28
2022-12-22T11:56:41.122Z,97552.25
2022-12-22T11:59:24.663Z,97561.31
2022-12-22T12:02:49.996Z,97552.25
2022-12-22T12:05:35.637Z,97552.63
2022-12-22T12:08:09.781Z,97542.53
2022-12-22T12:10:43.253Z,97532.00
2022-12-22T12:13:25.742Z,97522.09
2022-12-22T12:16:01.764Z,97524.75
2022-12-22T12:18:48.812Z,97515.03
2022-12-22T12:21:26.401Z,97515.88
2022-12-22T12:24:31.305Z,97503.53
2022-12-22T12:27:03.592Z,97517.22
2022-12-22T12:29:37.578Z,97508.69
2022-12-22T12:32:12.853Z,97506.84
2022-12-22T12:34:45.696Z,97514.91
2022-12-22T12:37:19.142Z,97520.03
2022-12-22T12:39:57.097Z,97514.28
2022-12-22T12:42:31.011Z,97521.31
2022-12-22T12:45:00.564Z,97509.75
2022-12-22T12:47:31.316Z,97522.34
2022-12-22T12:50:07.250Z,97523.16
2022-12-22T12:53:16.315Z,97527.25
2022-12-22T12:56:10.118Z,97522.09
2022-12-22T12:58:58.396Z,97531.59
2022-12-22T13:02:01.083Z,97522.72
2022-12-22T13:05:19.673Z,97519.00
2022-12-22T13:08:23.022Z,97519.00
2022-12-22T13:11:52.164Z,97515.09
2022-12-22T13:14:10.495Z,97510.56
2022-12-22T13:16:40.358Z,97500.25
2022-12-22T13:19:25.700Z,97507.69
2022-12-22T13:21:57.930Z,97500.66
2022-12-22T13:24:29.967Z,97506.84
2022-12-22T13:27:04.233Z,97501.47
2022-12-22T13:29:42.992Z,97491.78
2022-12-22T13:32:27.581Z,97506.84
2022-12-22T13:37:58.530Z,97507.06
2022-12-22T13:40:27.957Z,97499.38
2022-12-22T13:42:58.213Z,97496.09
2022-12-22T13:45:38.504Z,97495.09
2022-12-22T13:48:11.031Z,97491.19
2022-12-22T13:50:44.020Z,97489.22
2022-12-22T13:53:42.143Z,97487.38
2022-12-22T13:56:08.872Z,97486.78
2022-12-22T13:58:39.327Z,97488.84
2022-12-22T14:01:18.218Z,97488.66
2022-12-22T14:04:01.727Z,97485.75
2022-12-22T14:06:33.310Z,97478.91
2022-12-22T14:09:18.233Z,97477.09
2022-12-22T14:11:52.022Z,97479.78
2022-12-22T14:14:24.688Z,97476.69
2022-12-22T14:16:56.206Z,97465.16
2022-12-22T14:19:25.228Z,97468.50
2022-12-22T14:22:03.603Z,97467.09
2022-12-22T14:24:39.034Z,97449.75
2022-12-22T14:27:10.595Z,97453.00
2022-12-22T14:29:39.222Z,97461.94
2022-12-22T14:32:08.232Z,97454.34
2022-12-22T14:34:36.965Z,97455.78
2022-12-22T14:37:05.807Z,97446.09
2022-12-22T14:39:35.744Z,97448.31
2022-12-22T14:42:07.205Z,97448.78
2022-12-22T14:44:44.161Z,97448.56
2022-12-22T14:47:18.453Z,97452.31
2022-12-22T14:49:50.165Z,97439.94
2022-12-22T14:52:23.580Z,97433.34
2022-12-22T14:54:54.512Z,97436.84
2022-12-22T14:57:30.336Z,97439.53
2022-12-22T15:00:04.783Z,97435.22
2022-12-22T15:02:39.202Z,97423.00
2022-12-22T15:05:16.384Z,97433.75
2022-12-22T15:08:05.535Z,97425.88
2022-12-22T15:10:42.343Z,97421.78
2022-12-22T15:13:22.275Z,97433.13
2022-12-22T15:15:51.533Z,97435.81
2022-12-22T15:18:20.182Z,97453.78
2022-12-22T15:20:48.767Z,97434.56
2022-12-22T15:23:17.849Z,97440.09
2022-12-22T15:25:47.918Z,97437.44
2022-12-22T15:28:16.604Z,97423.44
2022-12-22T15:30:45.485Z,97424.66
2022-12-22T15:33:15.075Z,97428.81
2022-12-22T15:35:43.800Z,97433.75
2022-12-22T15:38:14.070Z,97428.78
2022-12-22T15:40:42.836Z,97435.38
2022-12-22T15:43:44.738Z,97432.53
2022-12-22T15:46:03.651Z,97421.16
2022-12-22T15:48:34.286Z,97425.69
2022-12-22T15:51:03.390Z,97430.03
2022-12-22T15:53:32.503Z,97420.50
2022-12-22T15:56:01.185Z,97423.41
2022-12-22T15:58:34.467Z,97430.59
2022-12-22T16:01:03.254Z,97430.81
2022-12-22T16:03:32.113Z,97444.25
2022-12-22T16:06:01.166Z,97451.25
2022-12-22T16:08:31.974Z,97439.69
2022-12-22T16:11:00.660Z,97443.19
2022-12-22T16:13:30.623Z,97434.50
2022-12-22T16:15:59.427Z,97432.47
2022-12-22T16:18:30.902Z,97435.59
2022-12-22T16:21:00.747Z,97439.13
2022-12-22T16:23:29.419Z,97433.09
2022-12-22T16:26:01.959Z,97441.78
2022-12-22T16:28:33.216Z,97433.53
2022-12-22T16:31:02.112Z,97429.19
2022-12-22T16:33:30.627Z,97429.19
2022-12-22T16:35:59.326Z,97428.38
2022-12-22T16:38:27.905Z,97436.44
2022-12-22T16:40:57.410Z,97440.75
2022-12-22T16:46:18.797Z,97435.59
2022-12-22T16:48:48.785Z,97432.91
2022-12-22T16:51:20.719Z,97433.75
2022-12-22T16:53:49.273Z,97435.63
2022-12-22T16:56:20.278Z,97440.38
2022-12-22T16:58:48.994Z,97430.44
2022-12-22T17:01:33.001Z,97429.22
2022-12-22T17:04:05.452Z,97422.22
2022-12-22T17:06:34.355Z,97416.44
2022-12-22T17:09:03.764Z,97413.13
2022-12-22T17:11:32.791Z,97411.03
2022-12-22T17:14:06.549Z,97428.00
2022-12-22T17:16:36.680Z,97420.75
2022-12-22T17:19:06.898Z,97404.00
2022-12-22T17:21:35.590Z,97411.88
2022-12-22T17:24:04.801Z,97412.28
2022-12-22T17:26:34.460Z,97407.75
2022-12-22T17:29:03.159Z,97402.03
2022-12-22T17:34:01.733Z,97399.34
2022-12-22T17:36:33.530Z,97402.38
2022-12-22T17:39:02.258Z,97404.69
2022-12-22T17:41:30.893Z,97414.41
2022-12-22T17:43:59.676Z,97406.13
2022-12-22T17:46:29.405Z,97401.63
2022-12-22T17:48:58.079Z,97394.78
2022-12-22T17:51:29.417Z,97397.91
2022-12-22T17:53:58.857Z,97406.78
2022-12-22T17:56:28.835Z,97395.44
2022-12-22T17:58:57.620Z,97385.53
2022-12-22T18:01:28.225Z,97395.63
2022-12-22T18:03:57.424Z,97387.78
2022-12-22T18:06:29.634Z,97378.50
2022-12-22T18:08:58.823Z,97389.84
2022-12-22T18:11:27.550Z,97383.16
2022-12-22T18:13:57.408Z,97394.25
2022-12-22T18:16:26.146Z,97393.41
2022-12-22T18:18:55.013Z,97381.03
2022-12-22T18:21:24.993Z,97386.41
2022-12-22T18:23:55.166Z,97391.94
2022-12-22T18:26:25.295Z,97383.28
2022-12-22T18:28:54.028Z,97376.47
2022-12-22T18:31:23.215Z,97389.22
2022-12-22T18:33:52.250Z,97378.69
2022-12-22T18:36:23.245Z,97386.31
2022-12-22T18:38:51.931Z,97368.34
2022-12-22T18:41:24.193Z,97376.78
2022-12-22T18:43:53.026Z,97368.09
2022-12-22T18:46:21.713Z,97364.59
2022-12-22T18:48:50.584Z,97368.31
2022-12-22T18:51:21.709Z,97366.63
2022-12-22T18:53:50.687Z,97365.81
2022-12-22T18:56:19.433Z,97366.84
2022-12-22T18:58:49.740Z,97357.34
2022-12-22T19:01:21.803Z,97365.38
2022-12-22T19:03:50.666Z,97369.91
2022-12-22T19:06:21.803Z,97373.63
2022-12-22T19:08:50.525Z,97366.59
2022-12-22T19:11:21.256Z,97372.16
2022-12-22T19:13:51.955Z,97367.78
2022-12-22T19:16:23.590Z,97377.69
2022-12-22T19:18:52.380Z,97381.38
2022-12-22T19:21:21.310Z,97379.72
2022-12-22T19:23:50.016Z,97378.06
2022-12-22T19:26:22.872Z,97375.38
2022-12-22T19:28:53.831Z,97374.75
2022-12-22T19:31:24.467Z,97378.25
2022-12-22T19:33:53.479Z,97372.25
2022-12-22T19:36:25.818Z,97376.81
2022-12-22T19:39:02.571Z,97379.88
2022-12-22T19:41:38.890Z,97382.56
2022-12-22T19:44:18.488Z,97382.56
2022-12-22T19:46:47.506Z,97384.59
2022-12-22T19:49:17.575Z,97391.00
2022-12-22T19:51:46.347Z,97393.69
2022-12-22T19:54:15.120Z,97383.94
2022-12-22T19:56:44.730Z,97386.63
2022-12-22T19:59:27.062Z,97389.53
2022-12-22T20:01:57.770Z,97392.38
2022-12-22T20:04:26.634Z,97391.56
2022-12-22T20:06:55.292Z,97397.09
2022-12-22T20:09:24.060Z,97396.28
2022-12-22T20:11:52.750Z,97405.16
2022-12-22T20:14:22.751Z,97396.50
2022-12-22T20:16:51.498Z,97394.81
2022-12-22T20:19:20.148Z,97385.94
2022-12-22T20:21:48.795Z,97384.09
2022-12-22T20:24:22.212Z,97378.94
2022-12-22T20:26:54.646Z,97377.25
2022-12-22T20:29:26.011Z,97379.13
2022-12-22T20:31:54.606Z,97373.75
2022-12-22T20:34:23.460Z,97375.78
2022-12-22T20:36:52.472Z,97372.94
2022-12-22T20:39:21.498Z,97379.31
2022-12-22T20:41:53.727Z,97377.66
2022-12-22T20:44:25.184Z,97380.31
2022-12-22T20:46:53.745Z,97384.88
2022-12-22T20:49:22.388Z,97387.38
2022-12-22T20:51:51.097Z,97397.44
2022-12-22T20:54:19.751Z,97387.72
2022-12-22T20:56:48.438Z,97393.94
2022-12-22T20:59:18.625Z,97388.75
2022-12-22T21:01:49.458Z,97388.75
2022-12-22T21:04:18.428Z,97394.94
2022-12-22T21:06:49.771Z,97385.25
2022-12-22T21:09:18.393Z,97384.44
2022-12-22T21:11:47.093Z,97371.19
2022-12-22T21:14:15.689Z,97389.97
2022-12-22T21:16:44.903Z,97386.25
2022-12-22T21:19:18.614Z,97381.09
2022-12-22T21:21:47.424Z,97384.78
2022-12-22T21:24:16.085Z,97388.31
2022-12-22T21:26:47.014Z,97379.44
2022-12-22T21:29:17.837Z,97375.09
2022-12-22T21:31:46.419Z,97376.94
2022-12-22T21:34:15.132Z,97364.38
2022-12-22T21:36:46.194Z,97377.78
2022-12-22T21:39:21.328Z,97377.78
2022-12-22T21:42:02.052Z,97376.94
2022-12-22T21:44:31.060Z,97375.09
2022-12-22T21:46:59.918Z,97375.91
2022-12-22T21:49:30.366Z,97363.56
2022-12-22T21:52:00.464Z,97366.03
2022-12-22T21:54:31.694Z,97382.09
2022-12-22T21:57:00.380Z,97380.28
2022-12-22T21:59:29.033Z,97370.38
2022-12-22T22:01:57.992Z,97387.28
2022-12-22T22:04:26.930Z,97383.56
2022-12-22T22:06:55.632Z,97381.09
2022-12-22T22:09:25.710Z,97380.28
2022-12-22T22:12:11.817Z,97382.97
2022-12-22T22:14:40.838Z,97384.59
2022-12-22T22:17:10.451Z,97376.56
2022-12-22T22:19:39.083Z,97382.97
2022-12-22T22:22:07.855Z,97377.59
2022-12-22T22:24:37.807Z,97383.97
2022-12-22T22:27:06.599Z,97392.84
2022-12-22T22:29:35.448Z,97382.31
2022-12-22T22:32:04.119Z,97383.97
2022-12-22T22:34:32.808Z,97383.97
2022-12-22T22:37:01.518Z,97383.97
2022-12-22T22:39:30.053Z,97385.00
2022-12-22T22:41:59.993Z,97376.94
2022-12-22T22:44:28.796Z,97386.84
2022-12-22T22:46:57.381Z,97392.22
2022-12-22T22:49:28.681Z,97378.00
2022-12-22T22:51:57.797Z,97386.22
2022-12-22T22:54:26.739Z,97385.38
2022-12-22T22:56:55.426Z,97386.22
2022-12-22T22:59:25.458Z,97395.28
2022-12-22T23:01:54.095Z,97391.75
2022-12-22T23:04:22.665Z,97396.28
2022-12-22T23:06:51.359Z,97386.38
2022-12-22T23:09:19.912Z,97388.47
2022-12-22T23:11:48.480Z,97388.47
2022-12-22T23:14:17.075Z,97386.59
2022-12-22T23:16:47.167Z,97395.47
2022-12-22T23:19:15.765Z,97388.47
2022-12-22T23:21:44.965Z,97392.13
2022-12-22T23:24:13.602Z,97395.84
2022-12-22T23:26:42.381Z,97394.00
2022-12-22T23:29:11.159Z,97387.81
2022-12-22T23:31:39.787Z,97386.97
2022-12-22T23:34:11.103Z,97390.50
2022-12-22T23:36:39.773Z,97390.50
2022-12-22T23:39:08.355Z,97387.81
2022-12-22T23:41:37.045Z,97396.69
2022-12-22T23:44:05.662Z,97398.53
2022-12-22T23:46:34.285Z,97395.84
2022-12-22T23:49:02.919Z,97394.16
2022-12-22T23:51:33.110Z,97396.84
2022-12-22T23:54:02.086Z,97409.25
2022-12-22T23:56:30.677Z,97403.91
2022-12-22T23:58:59.318Z,97408.44
